createdAt,value
2023-03-29T00:00:35.971Z,34.55
2023-03-29T00:03:04.492Z,34.62
2023-03-29T00:05:35.270Z,34.58
2023-03-29T00:08:04.347Z,34.50
2023-03-29T00:10:33.867Z,34.40
2023-03-29T00:13:04.982Z,34.72
2023-03-29T00:15:33.209Z,34.42
2023-03-29T00:18:01.417Z,34.60
2023-03-29T00:20:29.977Z,34.69
2023-03-29T00:22:58.077Z,34.52
2023-03-29T00:25:26.340Z,34.49
2023-03-29T00:27:54.563Z,34.50
2023-03-29T00:30:24.068Z,34.40
2023-03-29T00:32:52.502Z,34.58
2023-03-29T00:35:20.843Z,34.45
2023-03-29T00:37:51.098Z,34.46
2023-03-29T00:40:19.456Z,34.64
2023-03-29T00:42:47.750Z,34.55
2023-03-29T00:45:20.520Z,34.65
2023-03-29T00:47:52.713Z,34.57
2023-03-29T00:50:26.085Z,34.55
2023-03-29T00:53:00.955Z,34.48
2023-03-29T00:55:32.608Z,34.70
2023-03-29T00:58:02.758Z,34.75
2023-03-29T01:00:36.347Z,34.75
2023-03-29T01:03:13.931Z,34.75
2023-03-29T01:05:47.817Z,34.62
2023-03-29T01:08:20.312Z,34.62
2023-03-29T01:10:52.771Z,34.58
2023-03-29T01:13:26.399Z,34.73
2023-03-29T01:15:57.047Z,34.66
2023-03-29T01:18:26.659Z,34.71
2023-03-29T01:21:12.660Z,34.67
2023-03-29T01:24:07.841Z,34.76
2023-03-29T01:26:48.881Z,34.91
2023-03-29T01:29:25.751Z,34.70
2023-03-29T01:31:59.289Z,34.73
2023-03-29T01:34:34.500Z,34.58
2023-03-29T01:37:08.907Z,34.60
2023-03-29T01:39:37.349Z,34.65
2023-03-29T01:42:22.482Z,34.65
2023-03-29T01:44:57.606Z,34.81
2023-03-29T01:47:32.319Z,34.75
2023-03-29T01:50:09.127Z,34.74
2023-03-29T01:52:41.317Z,34.80
2023-03-29T01:55:14.330Z,34.56
2023-03-29T01:57:45.782Z,34.86
2023-03-29T02:00:19.887Z,34.69
2023-03-29T02:02:50.018Z,34.75
2023-03-29T02:05:19.839Z,34.93
2023-03-29T02:07:50.675Z,34.76
2023-03-29T02:10:20.102Z,34.87
2023-03-29T02:12:48.509Z,34.91
2023-03-29T02:15:21.066Z,34.93
2023-03-29T02:17:51.154Z,34.88
2023-03-29T02:20:22.792Z,34.80
2023-03-29T02:22:58.634Z,34.90
2023-03-29T02:25:27.258Z,34.84
2023-03-29T02:27:56.341Z,34.99
2023-03-29T02:30:28.957Z,34.88
2023-03-29T02:33:02.071Z,34.78
2023-03-29T02:35:36.620Z,35.07
2023-03-29T02:38:09.182Z,34.93
2023-03-29T02:40:40.223Z,35.03
2023-03-29T02:43:10.446Z,34.95
2023-03-29T02:45:42.555Z,35.04
2023-03-29T02:48:14.891Z,34.97
2023-03-29T02:50:46.733Z,34.93
2023-03-29T02:53:18.473Z,34.96
2023-03-29T02:55:47.337Z,35.00
2023-03-29T02:58:16.007Z,35.02
2023-03-29T03:00:48.886Z,35.02
2023-03-29T03:03:17.290Z,34.99
2023-03-29T03:05:45.861Z,34.97
2023-03-29T03:08:14.289Z,34.92
2023-03-29T03:10:42.560Z,35.11
2023-03-29T03:13:10.710Z,35.04
2023-03-29T03:15:41.282Z,35.21
2023-03-29T03:18:12.772Z,35.07
2023-03-29T03:20:41.413Z,35.11
2023-03-29T03:23:10.794Z,35.12
2023-03-29T03:25:38.950Z,35.04
2023-03-29T03:28:07.680Z,35.06
2023-03-29T03:30:35.898Z,35.01
2023-03-29T03:33:04.104Z,35.19
2023-03-29T03:35:33.875Z,35.07
2023-03-29T03:38:02.050Z,35.11
2023-03-29T03:40:30.167Z,35.05
2023-03-29T03:42:58.353Z,35.07
2023-03-29T03:45:26.453Z,35.07
2023-03-29T03:47:55.029Z,35.15
2023-03-29T03:50:23.512Z,35.08
2023-03-29T03:52:53.175Z,35.09
2023-03-29T03:55:22.128Z,35.18
2023-03-29T03:57:50.266Z,35.13
2023-03-29T04:00:20.453Z,35.24
2023-03-29T04:02:49.443Z,35.18
2023-03-29T04:05:17.781Z,35.25
2023-03-29T04:07:45.991Z,35.11
2023-03-29T04:10:15.972Z,35.08
2023-03-29T04:12:44.311Z,35.13
2023-03-29T04:15:12.607Z,35.12
2023-03-29T04:17:40.932Z,35.23
2023-03-29T04:20:12.670Z,35.26
2023-03-29T04:22:41.926Z,35.27
2023-03-29T04:25:11.832Z,35.20
2023-03-29T04:27:41.717Z,35.23
2023-03-29T04:30:10.978Z,35.23
2023-03-29T04:32:39.400Z,35.14
2023-03-29T04:35:08.322Z,35.19
2023-03-29T04:37:37.208Z,35.19
2023-03-29T04:40:08.793Z,35.09
2023-03-29T04:42:37.644Z,35.14
2023-03-29T04:45:08.226Z,35.33
2023-03-29T04:47:36.734Z,35.40
2023-03-29T04:50:05.774Z,35.13
2023-03-29T04:52:34.094Z,35.30
2023-03-29T04:55:03.361Z,35.34
2023-03-29T04:57:31.864Z,35.40
2023-03-29T05:00:00.129Z,35.29
2023-03-29T05:02:32.398Z,35.34
2023-03-29T05:05:00.664Z,35.35
2023-03-29T05:07:28.812Z,35.42
2023-03-29T05:09:56.965Z,35.41
2023-03-29T05:12:25.241Z,35.31
2023-03-29T05:14:53.832Z,35.35
2023-03-29T05:17:22.146Z,35.23
2023-03-29T05:19:51.696Z,35.45
2023-03-29T05:22:20.309Z,35.40
2023-03-29T05:24:48.525Z,35.28
2023-03-29T05:27:17.319Z,35.28
2023-03-29T05:29:45.833Z,35.39
2023-03-29T05:32:15.009Z,35.33
2023-03-29T05:34:43.561Z,35.42
2023-03-29T05:37:13.523Z,35.35
2023-03-29T05:39:41.674Z,35.10
2023-03-29T05:42:12.433Z,35.39
2023-03-29T05:44:40.967Z,35.52
2023-03-29T05:47:09.166Z,35.52
2023-03-29T05:49:38.235Z,35.48
2023-03-29T05:52:06.814Z,35.48
2023-03-29T05:54:36.420Z,35.61
2023-03-29T05:57:04.839Z,35.55
2023-03-29T05:59:33.919Z,35.49
2023-03-29T06:02:03.855Z,35.42
2023-03-29T06:04:33.661Z,35.45
2023-03-29T06:07:02.743Z,35.54
2023-03-29T06:09:32.197Z,35.66
2023-03-29T06:12:01.910Z,35.53
2023-03-29T06:14:30.207Z,35.47
2023-03-29T06:16:58.400Z,35.45
2023-03-29T06:19:26.687Z,35.57
2023-03-29T06:21:54.826Z,35.48
2023-03-29T06:24:23.480Z,35.47
2023-03-29T06:26:52.430Z,35.50
2023-03-29T06:29:22.255Z,35.45
2023-03-29T06:31:50.594Z,35.41
2023-03-29T06:34:18.755Z,35.77
2023-03-29T06:36:47.017Z,35.58
2023-03-29T06:39:15.194Z,35.70
2023-03-29T06:41:43.385Z,35.62
2023-03-29T06:44:11.580Z,35.61
2023-03-29T06:46:41.625Z,35.72
2023-03-29T06:49:09.821Z,35.63
2023-03-29T06:51:37.951Z,35.61
2023-03-29T06:54:06.083Z,35.59
2023-03-29T06:56:34.304Z,35.71
2023-03-29T06:59:02.665Z,35.70
2023-03-29T07:01:30.876Z,35.56
2023-03-29T07:04:04.813Z,35.70
2023-03-29T07:06:33.817Z,35.58
2023-03-29T07:09:02.002Z,35.80
2023-03-29T07:11:31.622Z,35.62
2023-03-29T07:13:59.805Z,35.67
2023-03-29T07:16:27.882Z,35.75
2023-03-29T07:18:56.278Z,35.77
2023-03-29T07:21:26.655Z,35.83
2023-03-29T07:23:54.828Z,35.70
2023-03-29T07:26:28.927Z,35.68
2023-03-29T07:28:57.977Z,35.68
2023-03-29T07:31:26.085Z,35.67
2023-03-29T07:33:54.445Z,35.76
2023-03-29T07:36:22.846Z,35.83
2023-03-29T07:38:53.992Z,35.68
2023-03-29T07:41:24.041Z,35.77
2023-03-29T07:43:52.344Z,35.67
2023-03-29T07:46:20.744Z,35.84
2023-03-29T07:48:48.990Z,35.80
2023-03-29T07:51:17.503Z,35.85
2023-03-29T07:53:45.793Z,35.72
2023-03-29T07:56:15.755Z,35.78
2023-03-29T07:58:43.947Z,35.92
2023-03-29T08:01:18.833Z,35.83
2023-03-29T08:03:48.167Z,35.92
2023-03-29T08:06:17.336Z,35.75
2023-03-29T08:08:45.528Z,35.83
2023-03-29T08:11:15.453Z,35.74
2023-03-29T08:13:43.573Z,35.85
2023-03-29T08:16:11.915Z,35.85
2023-03-29T08:18:40.417Z,35.89
2023-03-29T08:21:09.240Z,35.83
2023-03-29T08:23:37.417Z,35.81
2023-03-29T08:26:05.883Z,36.00
2023-03-29T08:28:35.499Z,35.91
2023-03-29T08:31:04.119Z,35.94
2023-03-29T08:33:32.688Z,35.90
2023-03-29T08:36:00.962Z,35.90
2023-03-29T08:38:29.163Z,35.98
2023-03-29T08:40:57.817Z,35.98
2023-03-29T08:43:51.165Z,36.09
2023-03-29T08:46:35.174Z,35.95
2023-03-29T08:49:07.102Z,36.00
2023-03-29T08:51:39.544Z,36.03
2023-03-29T08:54:12.663Z,35.99
2023-03-29T08:56:46.712Z,35.97
2023-03-29T08:59:23.156Z,35.94
2023-03-29T09:01:55.301Z,36.04
2023-03-29T09:04:28.042Z,36.03
2023-03-29T09:06:57.986Z,35.94
2023-03-29T09:09:30.479Z,36.01
2023-03-29T09:12:12.855Z,36.04
2023-03-29T09:14:53.753Z,36.06
2023-03-29T09:17:33.384Z,36.06
2023-03-29T09:20:12.631Z,36.19
2023-03-29T09:22:49.581Z,35.98
2023-03-29T09:25:25.513Z,36.14
2023-03-29T09:28:00.328Z,36.06
2023-03-29T09:30:33.697Z,36.11
2023-03-29T09:33:06.158Z,36.13
2023-03-29T09:35:39.694Z,36.10
2023-03-29T09:38:12.498Z,36.09
2023-03-29T09:40:46.378Z,36.07
2023-03-29T09:43:18.471Z,36.00
2023-03-29T09:45:54.133Z,36.24
2023-03-29T09:48:22.832Z,36.21
2023-03-29T09:50:52.521Z,36.21
2023-03-29T09:53:22.855Z,36.20
2023-03-29T09:55:52.296Z,36.04
2023-03-29T09:58:23.920Z,36.16
2023-03-29T10:00:55.156Z,36.07
2023-03-29T10:03:25.971Z,36.15
2023-03-29T10:05:57.258Z,36.11
2023-03-29T10:08:28.726Z,36.09
2023-03-29T10:10:59.505Z,36.08
2023-03-29T10:13:31.317Z,36.25
2023-03-29T10:16:03.814Z,36.30
2023-03-29T10:18:34.588Z,36.15
2023-03-29T10:21:05.510Z,36.26
2023-03-29T10:23:35.491Z,36.17
2023-03-29T10:26:05.428Z,36.16
2023-03-29T10:28:35.129Z,36.23
2023-03-29T10:31:08.316Z,36.28
2023-03-29T10:33:37.937Z,36.28
2023-03-29T10:36:08.947Z,36.27
2023-03-29T10:38:39.547Z,36.25
2023-03-29T10:41:11.805Z,36.27
2023-03-29T10:43:44.292Z,36.33
2023-03-29T10:46:21.419Z,36.30
2023-03-29T10:48:51.361Z,36.26
2023-03-29T10:51:20.583Z,36.20
2023-03-29T10:53:48.911Z,36.23
2023-03-29T10:56:34.036Z,36.37
2023-03-29T10:59:18.094Z,36.36
2023-03-29T11:01:59.136Z,36.38
2023-03-29T11:04:36.680Z,36.36
2023-03-29T11:07:25.546Z,36.47
2023-03-29T11:10:01.418Z,36.38
2023-03-29T11:12:36.146Z,36.44
2023-03-29T11:15:33.321Z,36.68
2023-03-29T11:18:16.616Z,36.55
2023-03-29T11:20:50.865Z,36.28
2023-03-29T11:23:33.579Z,36.36
2023-03-29T11:26:12.115Z,36.44
2023-03-29T11:28:49.227Z,36.61
2023-03-29T11:31:25.944Z,36.43
2023-03-29T11:34:04.734Z,36.41
2023-03-29T11:36:42.478Z,36.53
2023-03-29T11:39:20.839Z,36.51
2023-03-29T11:41:54.442Z,36.54
2023-03-29T11:44:26.333Z,36.38
2023-03-29T11:47:00.051Z,36.33
2023-03-29T11:49:35.362Z,36.40
2023-03-29T11:52:08.005Z,36.51
2023-03-29T11:54:42.398Z,36.50
2023-03-29T11:57:20.071Z,36.48
2023-03-29T11:59:56.421Z,36.44
2023-03-29T12:02:31.073Z,36.61
2023-03-29T12:05:07.907Z,36.45
2023-03-29T12:07:41.293Z,36.51
2023-03-29T12:10:17.515Z,36.58
2023-03-29T12:12:50.705Z,36.31
2023-03-29T12:15:21.669Z,36.43
2023-03-29T12:18:01.372Z,36.65
2023-03-29T12:20:35.694Z,36.58
2023-03-29T12:23:04.146Z,36.56
2023-03-29T12:25:39.328Z,36.57
2023-03-29T12:28:24.467Z,36.78
2023-03-29T12:31:03.477Z,36.70
2023-03-29T12:34:03.697Z,37.12
2023-03-29T12:37:16.632Z,37.37
2023-03-29T12:39:45.294Z,36.89
2023-03-29T12:42:17.750Z,36.99
2023-03-29T12:44:50.719Z,37.12
2023-03-29T12:47:21.544Z,37.04
2023-03-29T12:49:56.305Z,37.19
2023-03-29T12:52:31.428Z,37.24
2023-03-29T12:55:02.703Z,37.35
2023-03-29T12:57:42.084Z,37.91
2023-03-29T13:00:22.183Z,37.77
2023-03-29T13:03:02.902Z,37.70
2023-03-29T13:05:34.883Z,37.37
2023-03-29T13:08:24.088Z,38.12
2023-03-29T13:10:56.736Z,37.52
2023-03-29T13:13:28.731Z,37.59
2023-03-29T13:15:57.633Z,37.61
2023-03-29T13:18:43.162Z,38.24
2023-03-29T13:21:18.965Z,37.72
2023-03-29T13:24:00.166Z,37.93
2023-03-29T13:26:44.007Z,38.07
2023-03-29T13:29:31.068Z,38.05
2023-03-29T13:32:07.316Z,37.75
2023-03-29T13:34:46.724Z,37.93
2023-03-29T13:37:28.736Z,38.01
2023-03-29T13:39:58.361Z,37.61
2023-03-29T13:42:39.125Z,37.69
2023-03-29T13:45:15.479Z,37.91
2023-03-29T13:47:54.935Z,37.89
2023-03-29T13:50:39.953Z,38.21
2023-03-29T13:53:13.867Z,37.71
2023-03-29T13:55:48.992Z,37.76
2023-03-29T13:58:27.963Z,37.92
2023-03-29T14:01:02.632Z,37.65
2023-03-29T14:03:37.010Z,37.57
2023-03-29T14:06:07.829Z,37.58
2023-03-29T14:08:41.668Z,37.75
2023-03-29T14:11:24.590Z,38.07
2023-03-29T14:13:58.121Z,37.90
2023-03-29T14:16:29.337Z,37.77
2023-03-29T14:19:00.416Z,37.87
2023-03-29T14:21:28.700Z,37.98
2023-03-29T14:23:59.982Z,37.94
2023-03-29T14:26:34.596Z,38.04
2023-03-29T14:29:05.646Z,37.96
2023-03-29T14:31:36.258Z,37.94
2023-03-29T14:34:08.017Z,37.92
2023-03-29T14:36:37.439Z,37.91
2023-03-29T14:39:10.179Z,37.96
2023-03-29T14:41:40.872Z,38.20
2023-03-29T14:44:09.677Z,37.91
2023-03-29T14:46:38.160Z,37.86
2023-03-29T14:49:07.484Z,37.99
2023-03-29T14:51:37.111Z,37.82
2023-03-29T14:54:06.742Z,37.93
2023-03-29T14:56:35.557Z,37.80
2023-03-29T14:59:06.009Z,37.91
2023-03-29T15:01:34.235Z,37.83
2023-03-29T15:04:06.321Z,37.89
2023-03-29T15:06:40.164Z,37.93
2023-03-29T15:09:12.298Z,37.83
2023-03-29T15:11:40.955Z,37.84
2023-03-29T15:14:17.400Z,38.00
2023-03-29T15:16:48.432Z,37.76
2023-03-29T15:19:19.515Z,37.76
2023-03-29T15:21:49.884Z,37.77
2023-03-29T15:24:23.555Z,37.79
2023-03-29T15:27:03.705Z,37.86
2023-03-29T15:29:41.840Z,37.83
2023-03-29T15:32:11.713Z,37.83
2023-03-29T15:34:40.015Z,37.75
2023-03-29T15:37:08.411Z,37.76
2023-03-29T15:39:40.708Z,37.81
2023-03-29T15:42:11.221Z,37.92
2023-03-29T15:44:41.341Z,37.78
2023-03-29T15:47:11.263Z,37.75
2023-03-29T15:49:39.418Z,37.83
2023-03-29T15:52:07.672Z,37.63
2023-03-29T15:54:37.315Z,37.64
2023-03-29T15:57:07.743Z,37.68
2023-03-29T15:59:36.688Z,37.53
2023-03-29T16:02:07.944Z,37.51
2023-03-29T16:04:36.392Z,37.51
2023-03-29T16:07:08.723Z,37.57
2023-03-29T16:09:37.139Z,37.46
2023-03-29T16:12:05.728Z,37.49
2023-03-29T16:14:34.090Z,37.51
2023-03-29T16:17:03.385Z,37.49
2023-03-29T16:19:34.300Z,37.49
2023-03-29T16:22:05.191Z,37.50
2023-03-29T16:24:34.114Z,37.50
2023-03-29T16:27:02.910Z,37.44
2023-03-29T16:29:31.853Z,37.12
2023-03-29T16:32:00.810Z,37.39
2023-03-29T16:34:30.096Z,37.30
2023-03-29T16:36:59.749Z,37.45
2023-03-29T16:39:28.293Z,37.42
2023-03-29T16:41:56.447Z,37.29
2023-03-29T16:44:27.018Z,37.40
2023-03-29T16:46:57.548Z,37.53
2023-03-29T16:49:25.931Z,37.58
2023-03-29T16:51:54.056Z,37.52
2023-03-29T16:54:25.942Z,37.46
2023-03-29T16:56:54.217Z,37.49
2023-03-29T16:59:22.542Z,37.56
2023-03-29T17:01:50.892Z,37.56
2023-03-29T17:04:19.264Z,37.53
2023-03-29T17:06:47.557Z,37.43
2023-03-29T17:09:17.019Z,37.51
2023-03-29T17:11:46.669Z,37.49
2023-03-29T17:14:14.879Z,37.54
2023-03-29T17:16:43.053Z,37.41
2023-03-29T17:19:11.375Z,37.53
2023-03-29T17:21:39.977Z,37.62
2023-03-29T17:24:10.032Z,37.45
2023-03-29T17:26:38.921Z,37.55
2023-03-29T17:29:10.216Z,37.53
2023-03-29T17:31:47.142Z,37.62
2023-03-29T17:34:15.401Z,37.64
2023-03-29T17:36:43.612Z,37.48
2023-03-29T17:39:13.034Z,37.54
2023-03-29T17:41:41.155Z,37.58
2023-03-29T17:44:12.278Z,37.51
2023-03-29T17:46:40.516Z,37.57
2023-03-29T17:49:08.833Z,37.48
2023-03-29T17:51:37.146Z,37.46
2023-03-29T17:54:06.268Z,37.53
2023-03-29T17:56:34.436Z,37.63
2023-03-29T17:59:02.791Z,37.50
2023-03-29T18:01:32.964Z,37.50
2023-03-29T18:04:01.327Z,37.47
2023-03-29T18:06:29.537Z,37.57
2023-03-29T18:08:58.106Z,37.62
2023-03-29T18:11:27.399Z,37.55
2023-03-29T18:13:58.991Z,37.55
2023-03-29T18:16:27.653Z,37.59
2023-03-29T18:18:57.319Z,37.60
2023-03-29T18:21:27.507Z,37.60
2023-03-29T18:23:56.957Z,37.52
2023-03-29T18:26:25.941Z,37.60
2023-03-29T18:28:54.359Z,37.27
2023-03-29T18:31:22.855Z,37.52
2023-03-29T18:33:51.100Z,37.53
2023-03-29T18:36:20.912Z,37.44
2023-03-29T18:38:49.118Z,37.50
2023-03-29T18:41:17.292Z,37.64
2023-03-29T18:43:47.801Z,37.41
2023-03-29T18:46:16.066Z,37.52
2023-03-29T18:48:44.316Z,37.54
2023-03-29T18:51:13.478Z,37.45
2023-03-29T18:53:44.482Z,37.43
2023-03-29T18:56:12.666Z,37.51
2023-03-29T18:58:40.801Z,37.38
2023-03-29T19:01:11.018Z,37.43
2023-03-29T19:03:39.459Z,37.47
2023-03-29T19:06:09.049Z,37.26
2023-03-29T19:08:39.768Z,37.47
2023-03-29T19:11:11.475Z,37.44
2023-03-29T19:13:39.705Z,37.49
2023-03-29T19:16:08.297Z,37.36
2023-03-29T19:18:36.788Z,37.39
2023-03-29T19:21:05.388Z,37.43
2023-03-29T19:23:33.608Z,37.38
2023-03-29T19:26:04.139Z,37.24
2023-03-29T19:28:34.744Z,37.22
2023-03-29T19:31:04.474Z,37.20
2023-03-29T19:33:33.129Z,37.27
2023-03-29T19:36:01.654Z,37.19
2023-03-29T19:38:30.204Z,37.17
2023-03-29T19:40:58.366Z,37.18
2023-03-29T19:43:27.312Z,37.11
2023-03-29T19:45:56.925Z,37.07
2023-03-29T19:48:25.304Z,37.22
2023-03-29T19:50:53.535Z,37.05
2023-03-29T19:53:23.227Z,36.98
2023-03-29T19:55:51.510Z,37.13
2023-03-29T19:58:19.674Z,37.16
2023-03-29T20:00:48.424Z,37.09
2023-03-29T20:03:18.133Z,37.07
2023-03-29T20:05:47.540Z,37.06
2023-03-29T20:08:15.812Z,37.02
2023-03-29T20:10:44.179Z,37.04
2023-03-29T20:13:12.295Z,37.00
2023-03-29T20:15:40.447Z,36.91
2023-03-29T20:18:08.652Z,36.99
2023-03-29T20:20:38.932Z,36.96
2023-03-29T20:23:07.054Z,36.95
2023-03-29T20:25:36.623Z,37.08
2023-03-29T20:28:06.638Z,36.92
2023-03-29T20:30:35.234Z,36.99
2023-03-29T20:33:04.831Z,36.92
2023-03-29T20:35:33.246Z,36.96
2023-03-29T20:38:03.212Z,36.96
2023-03-29T20:40:31.685Z,37.02
2023-03-29T20:42:59.941Z,36.98
2023-03-29T20:45:29.613Z,36.89
2023-03-29T20:48:02.461Z,36.99
2023-03-29T20:50:30.968Z,36.84
2023-03-29T20:53:03.831Z,36.79
2023-03-29T20:55:34.600Z,36.97
2023-03-29T20:58:03.548Z,36.90
2023-03-29T21:00:33.674Z,36.95
2023-03-29T21:03:03.800Z,36.73
2023-03-29T21:05:33.560Z,36.91
2023-03-29T21:08:02.544Z,36.84
2023-03-29T21:10:31.010Z,36.87
2023-03-29T21:13:02.879Z,36.78
2023-03-29T21:15:32.119Z,36.64
2023-03-29T21:18:00.718Z,36.88
2023-03-29T21:20:29.184Z,36.92
2023-03-29T21:22:57.362Z,36.85
2023-03-29T21:25:25.701Z,36.78
2023-03-29T21:27:53.937Z,36.86
2023-03-29T21:30:23.542Z,36.71
2023-03-29T21:32:51.764Z,36.85
2023-03-29T21:35:20.147Z,36.80
2023-03-29T21:37:48.342Z,36.70
2023-03-29T21:40:16.906Z,36.82
2023-03-29T21:42:45.437Z,36.76
2023-03-29T21:45:13.580Z,36.80
2023-03-29T21:47:43.112Z,36.69
2023-03-29T21:50:12.618Z,36.80
2023-03-29T21:52:40.776Z,36.60
2023-03-29T21:55:09.403Z,36.84
2023-03-29T21:57:37.527Z,36.66
2023-03-29T22:00:11.119Z,36.71
2023-03-29T22:02:39.681Z,36.64
2023-03-29T22:05:09.785Z,36.59
2023-03-29T22:07:39.233Z,36.62
2023-03-29T22:10:09.401Z,36.69
2023-03-29T22:12:38.680Z,36.62
2023-03-29T22:15:08.330Z,36.84
2023-03-29T22:17:37.140Z,36.79
2023-03-29T22:20:14.033Z,36.84
2023-03-29T22:22:49.789Z,36.67
2023-03-29T22:25:18.875Z,36.56
2023-03-29T22:27:48.613Z,36.75
2023-03-29T22:30:17.947Z,36.73
2023-03-29T22:32:46.488Z,36.67
2023-03-29T22:35:14.636Z,36.59
2023-03-29T22:37:43.101Z,36.61
2023-03-29T22:40:14.142Z,36.66
2023-03-29T22:42:42.394Z,36.62
2023-03-29T22:45:11.621Z,36.64
2023-03-29T22:47:39.812Z,36.75
2023-03-29T22:50:09.034Z,36.63
2023-03-29T22:52:37.083Z,36.59
2023-03-29T22:55:05.739Z,36.57
2023-03-29T22:57:35.585Z,36.65
2023-03-29T23:00:07.092Z,36.56
2023-03-29T23:02:35.242Z,36.53
2023-03-29T23:05:03.361Z,36.58
2023-03-29T23:07:31.485Z,36.56
2023-03-29T23:10:00.256Z,36.64
2023-03-29T23:12:28.375Z,36.60
2023-03-29T23:14:59.130Z,36.46
2023-03-29T23:17:27.284Z,36.56
2023-03-29T23:19:55.379Z,36.65
2023-03-29T23:22:23.843Z,36.62
2023-03-29T23:24:52.384Z,36.70
2023-03-29T23:27:20.879Z,36.50
2023-03-29T23:29:49.018Z,36.48
2023-03-29T23:32:18.653Z,36.53
2023-03-29T23:34:46.805Z,36.57
2023-03-29T23:37:14.867Z,36.51
2023-03-29T23:39:43.013Z,36.42
2023-03-29T23:42:11.095Z,36.59
2023-03-29T23:44:39.656Z,36.63
2023-03-29T23:47:09.301Z,36.58
2023-03-29T23:49:38.801Z,36.51
2023-03-29T23:52:07.112Z,36.47
2023-03-29T23:54:35.379Z,36.45
2023-03-29T23:57:03.685Z,36.42
2023-03-29T23:59:37.809Z,36.38
